Terminal Aerodrome Forecast
Issued by NWS

Home | Current Version | Previous Version | Text Only | Print | Product List | Glossary On
Versions: 1 2 3 4 5 6 7 8 9 10 11 12 13
000
FTUS43 KICT 271128
TAFCNU
TAF
KCNU 271128Z 2712/2812 VRB04KT P6SM SKC
     FM271900 17009KT P6SM SCT250
     FM280000 16006KT P6SM SCT250=

USA.gov is the U.S. government's official web portal to all federal, state and local government web resources and services.